Terminal Aerodrome Forecast
Issued by NWS Charleston, WV

Current Version | Previous Version | Graphics & Text | Print | Product List | Glossary On
Versions: 1 2 3 4 5 6 7 8 9 10 11 12 13 14 15 16 17 18 19 20 21 22 23 24
000
FTUS41 KRLX 020906 AAA
TAFBKW
TAF AMD
KBKW 020906Z 0209/0306 28007KT P6SM OVC035
      TEMPO 0209/0212 BKN035
     FM021200 29012G22KT P6SM BKN030
     FM022300 29011KT P6SM BKN035=

USA.gov is the U.S. government's official web portal to all federal, state and local government web resources and services.